sensor_id;sensor_type;location;lat;lon;timestamp;temperature;humidity
31129;DHT22;17777;48.770;8.944;2023-07-29T00:00:52;23.40;58.90
31129;DHT22;17777;48.770;8.944;2023-07-29T00:03:18;23.40;58.90
31129;DHT22;17777;48.770;8.944;2023-07-29T00:05:44;23.40;58.90
31129;DHT22;17777;48.770;8.944;2023-07-29T00:08:10;23.40;58.90
31129;DHT22;17777;48.770;8.944;2023-07-29T00:10:36;23.40;59.00
31129;DHT22;17777;48.770;8.944;2023-07-29T00:13:03;23.40;59.00
31129;DHT22;17777;48.770;8.944;2023-07-29T00:15:30;23.30;59.00
31129;DHT22;17777;48.770;8.944;2023-07-29T00:17:55;23.40;59.10
31129;DHT22;17777;48.770;8.944;2023-07-29T00:20:21;23.40;59.10
31129;DHT22;17777;48.770;8.944;2023-07-29T00:22:47;23.40;59.20
31129;DHT22;17777;48.770;8.944;2023-07-29T00:25:16;23.40;59.20
31129;DHT22;17777;48.770;8.944;2023-07-29T00:27:42;23.40;59.20
31129;DHT22;17777;48.770;8.944;2023-07-29T00:30:08;23.40;59.20
31129;DHT22;17777;48.770;8.944;2023-07-29T00:32:35;23.40;59.20
31129;DHT22;17777;48.770;8.944;2023-07-29T00:35:01;23.40;59.20
31129;DHT22;17777;48.770;8.944;2023-07-29T00:37:28;23.40;59.20
31129;DHT22;17777;48.770;8.944;2023-07-29T00:39:55;23.40;59.20
31129;DHT22;17777;48.770;8.944;2023-07-29T00:42:21;23.40;59.20
31129;DHT22;17777;48.770;8.944;2023-07-29T00:44:47;23.40;59.20
31129;DHT22;17777;48.770;8.944;2023-07-29T00:47:15;23.40;59.20
31129;DHT22;17777;48.770;8.944;2023-07-29T00:49:45;23.40;59.20
31129;DHT22;17777;48.770;8.944;2023-07-29T00:52:11;23.40;59.20
31129;DHT22;17777;48.770;8.944;2023-07-29T00:54:39;23.40;59.30
31129;DHT22;17777;48.770;8.944;2023-07-29T00:57:08;23.40;59.30
31129;DHT22;17777;48.770;8.944;2023-07-29T00:59:35;23.40;59.30
31129;DHT22;17777;48.770;8.944;2023-07-29T01:02:02;23.40;59.30
31129;DHT22;17777;48.770;8.944;2023-07-29T01:04:31;23.40;59.20
31129;DHT22;17777;48.770;8.944;2023-07-29T01:07:07;23.40;59.30
31129;DHT22;17777;48.770;8.944;2023-07-29T01:09:55;23.40;59.60
31129;DHT22;17777;48.770;8.944;2023-07-29T01:18:05;23.40;59.40
31129;DHT22;17777;48.770;8.944;2023-07-29T01:20:38;23.50;59.40
31129;DHT22;17777;48.770;8.944;2023-07-29T01:23:06;23.40;59.30
31129;DHT22;17777;48.770;8.944;2023-07-29T01:25:34;23.50;59.30
31129;DHT22;17777;48.770;8.944;2023-07-29T01:28:00;23.40;59.30
31129;DHT22;17777;48.770;8.944;2023-07-29T01:30:30;23.50;59.30
31129;DHT22;17777;48.770;8.944;2023-07-29T01:33:16;23.40;59.40
31129;DHT22;17777;48.770;8.944;2023-07-29T01:35:49;23.40;59.50
31129;DHT22;17777;48.770;8.944;2023-07-29T01:38:30;23.40;59.30
31129;DHT22;17777;48.770;8.944;2023-07-29T01:41:01;23.40;59.40
31129;DHT22;17777;48.770;8.944;2023-07-29T01:43:29;23.40;59.20
31129;DHT22;17777;48.770;8.944;2023-07-29T01:45:56;23.40;59.20
31129;DHT22;17777;48.770;8.944;2023-07-29T01:48:22;23.30;59.20
31129;DHT22;17777;48.770;8.944;2023-07-29T01:50:49;23.40;59.30
31129;DHT22;17777;48.770;8.944;2023-07-29T01:53:15;23.30;59.30
31129;DHT22;17777;48.770;8.944;2023-07-29T01:55:41;23.30;59.40
31129;DHT22;17777;48.770;8.944;2023-07-29T01:58:08;23.30;59.40
31129;DHT22;17777;48.770;8.944;2023-07-29T02:00:36;23.30;59.40
31129;DHT22;17777;48.770;8.944;2023-07-29T02:03:02;23.30;59.40
31129;DHT22;17777;48.770;8.944;2023-07-29T02:05:28;23.30;59.40
31129;DHT22;17777;48.770;8.944;2023-07-29T02:07:54;23.30;59.40
31129;DHT22;17777;48.770;8.944;2023-07-29T02:10:19;23.30;59.30
31129;DHT22;17777;48.770;8.944;2023-07-29T02:12:45;23.30;59.30
31129;DHT22;17777;48.770;8.944;2023-07-29T02:15:11;23.30;59.30
31129;DHT22;17777;48.770;8.944;2023-07-29T02:17:37;23.30;59.20
31129;DHT22;17777;48.770;8.944;2023-07-29T02:20:03;23.30;59.20
31129;DHT22;17777;48.770;8.944;2023-07-29T02:22:30;23.30;59.20
31129;DHT22;17777;48.770;8.944;2023-07-29T02:24:55;23.30;59.20
31129;DHT22;17777;48.770;8.944;2023-07-29T02:27:21;23.30;59.20
31129;DHT22;17777;48.770;8.944;2023-07-29T02:29:47;23.30;59.20
31129;DHT22;17777;48.770;8.944;2023-07-29T02:32:13;23.30;59.20
31129;DHT22;17777;48.770;8.944;2023-07-29T02:34:39;23.30;59.20
31129;DHT22;17777;48.770;8.944;2023-07-29T02:37:05;23.30;59.20
31129;DHT22;17777;48.770;8.944;2023-07-29T02:39:31;23.20;59.20
31129;DHT22;17777;48.770;8.944;2023-07-29T02:41:57;23.20;59.20
31129;DHT22;17777;48.770;8.944;2023-07-29T02:44:25;23.20;59.20
31129;DHT22;17777;48.770;8.944;2023-07-29T02:46:50;23.20;59.20
31129;DHT22;17777;48.770;8.944;2023-07-29T02:49:17;23.20;59.20
31129;DHT22;17777;48.770;8.944;2023-07-29T02:51:43;23.20;59.30
31129;DHT22;17777;48.770;8.944;2023-07-29T02:54:09;23.20;59.30
31129;DHT22;17777;48.770;8.944;2023-07-29T02:56:35;23.20;59.40
31129;DHT22;17777;48.770;8.944;2023-07-29T02:59:01;23.20;59.40
31129;DHT22;17777;48.770;8.944;2023-07-29T03:01:28;23.20;59.40
31129;DHT22;17777;48.770;8.944;2023-07-29T03:03:54;23.20;59.40
31129;DHT22;17777;48.770;8.944;2023-07-29T03:06:20;23.20;59.40
31129;DHT22;17777;48.770;8.944;2023-07-29T03:08:45;23.20;59.40
31129;DHT22;17777;48.770;8.944;2023-07-29T03:11:15;23.20;59.40
31129;DHT22;17777;48.770;8.944;2023-07-29T03:13:43;23.20;59.50
31129;DHT22;17777;48.770;8.944;2023-07-29T03:16:10;23.20;59.40
31129;DHT22;17777;48.770;8.944;2023-07-29T03:18:38;23.20;59.40
31129;DHT22;17777;48.770;8.944;2023-07-29T03:21:04;23.20;59.40
31129;DHT22;17777;48.770;8.944;2023-07-29T03:23:31;23.20;59.40
31129;DHT22;17777;48.770;8.944;2023-07-29T03:26:02;23.20;59.40
31129;DHT22;17777;48.770;8.944;2023-07-29T03:28:33;23.20;59.50
31129;DHT22;17777;48.770;8.944;2023-07-29T03:30:59;23.20;59.50
31129;DHT22;17777;48.770;8.944;2023-07-29T03:33:25;23.20;59.40
31129;DHT22;17777;48.770;8.944;2023-07-29T03:35:52;23.20;59.40
31129;DHT22;17777;48.770;8.944;2023-07-29T03:38:18;23.20;59.50
31129;DHT22;17777;48.770;8.944;2023-07-29T03:40:44;23.20;59.50
31129;DHT22;17777;48.770;8.944;2023-07-29T03:43:10;23.20;59.50
31129;DHT22;17777;48.770;8.944;2023-07-29T03:45:36;23.20;59.50
31129;DHT22;17777;48.770;8.944;2023-07-29T03:48:04;23.20;59.50
31129;DHT22;17777;48.770;8.944;2023-07-29T03:50:30;23.30;59.60
31129;DHT22;17777;48.770;8.944;2023-07-29T03:52:56;23.30;59.60
31129;DHT22;17777;48.770;8.944;2023-07-29T03:55:22;23.30;59.60
31129;DHT22;17777;48.770;8.944;2023-07-29T03:57:48;23.30;59.60
31129;DHT22;17777;48.770;8.944;2023-07-29T04:00:14;23.30;59.50
31129;DHT22;17777;48.770;8.944;2023-07-29T04:02:42;23.30;59.60
31129;DHT22;17777;48.770;8.944;2023-07-29T04:05:11;23.30;59.60
31129;DHT22;17777;48.770;8.944;2023-07-29T04:07:36;23.30;59.60
31129;DHT22;17777;48.770;8.944;2023-07-29T04:10:03;23.30;59.70
31129;DHT22;17777;48.770;8.944;2023-07-29T04:12:30;23.20;59.70
31129;DHT22;17777;48.770;8.944;2023-07-29T04:14:56;23.20;59.70
31129;DHT22;17777;48.770;8.944;2023-07-29T04:17:22;23.30;59.80
31129;DHT22;17777;48.770;8.944;2023-07-29T04:19:48;23.30;59.80
31129;DHT22;17777;48.770;8.944;2023-07-29T04:22:15;23.30;59.80
31129;DHT22;17777;48.770;8.944;2023-07-29T04:24:42;23.30;59.90
31129;DHT22;17777;48.770;8.944;2023-07-29T04:27:08;23.30;59.90
31129;DHT22;17777;48.770;8.944;2023-07-29T04:29:33;23.30;59.90
31129;DHT22;17777;48.770;8.944;2023-07-29T04:32:02;23.30;59.90
31129;DHT22;17777;48.770;8.944;2023-07-29T04:34:28;23.30;59.90
31129;DHT22;17777;48.770;8.944;2023-07-29T04:36:54;23.30;59.90
31129;DHT22;17777;48.770;8.944;2023-07-29T04:39:20;23.30;59.90
31129;DHT22;17777;48.770;8.944;2023-07-29T04:41:46;23.30;59.90
31129;DHT22;17777;48.770;8.944;2023-07-29T04:44:11;23.30;59.90
31129;DHT22;17777;48.770;8.944;2023-07-29T04:46:37;23.30;60.00
31129;DHT22;17777;48.770;8.944;2023-07-29T04:49:04;23.30;60.00
31129;DHT22;17777;48.770;8.944;2023-07-29T04:51:30;23.30;60.00
31129;DHT22;17777;48.770;8.944;2023-07-29T04:53:58;23.30;60.00
31129;DHT22;17777;48.770;8.944;2023-07-29T04:56:24;23.30;60.00
31129;DHT22;17777;48.770;8.944;2023-07-29T04:58:50;23.30;60.00
31129;DHT22;17777;48.770;8.944;2023-07-29T05:01:16;23.30;60.00
31129;DHT22;17777;48.770;8.944;2023-07-29T05:03:42;23.30;60.10
31129;DHT22;17777;48.770;8.944;2023-07-29T05:06:08;23.20;60.00
31129;DHT22;17777;48.770;8.944;2023-07-29T05:08:34;23.20;60.00
31129;DHT22;17777;48.770;8.944;2023-07-29T05:11:00;23.20;60.00
31129;DHT22;17777;48.770;8.944;2023-07-29T05:13:26;23.20;60.00
31129;DHT22;17777;48.770;8.944;2023-07-29T05:15:51;23.20;60.10
31129;DHT22;17777;48.770;8.944;2023-07-29T05:18:18;23.30;60.20
31129;DHT22;17777;48.770;8.944;2023-07-29T05:20:44;23.30;60.30
31129;DHT22;17777;48.770;8.944;2023-07-29T05:23:10;23.30;60.30
31129;DHT22;17777;48.770;8.944;2023-07-29T05:25:36;23.20;60.20
31129;DHT22;17777;48.770;8.944;2023-07-29T05:28:02;23.30;60.40
31129;DHT22;17777;48.770;8.944;2023-07-29T05:30:29;23.20;60.30
31129;DHT22;17777;48.770;8.944;2023-07-29T05:33:00;23.30;60.40
31129;DHT22;17777;48.770;8.944;2023-07-29T05:35:26;23.30;60.50
31129;DHT22;17777;48.770;8.944;2023-07-29T05:37:52;23.30;60.50
31129;DHT22;17777;48.770;8.944;2023-07-29T05:40:18;23.30;60.60
31129;DHT22;17777;48.770;8.944;2023-07-29T05:42:44;23.30;60.70
31129;DHT22;17777;48.770;8.944;2023-07-29T05:45:11;23.30;60.70
31129;DHT22;17777;48.770;8.944;2023-07-29T05:47:38;23.40;60.80
31129;DHT22;17777;48.770;8.944;2023-07-29T05:50:04;23.40;60.90
31129;DHT22;17777;48.770;8.944;2023-07-29T05:52:31;23.40;60.90
31129;DHT22;17777;48.770;8.944;2023-07-29T05:54:57;23.50;61.00
31129;DHT22;17777;48.770;8.944;2023-07-29T05:57:23;23.50;60.90
31129;DHT22;17777;48.770;8.944;2023-07-29T05:59:49;23.50;61.00
31129;DHT22;17777;48.770;8.944;2023-07-29T06:02:14;23.50;61.10
31129;DHT22;17777;48.770;8.944;2023-07-29T06:04:40;23.50;61.10
31129;DHT22;17777;48.770;8.944;2023-07-29T06:07:07;23.60;61.20
31129;DHT22;17777;48.770;8.944;2023-07-29T06:09:33;23.60;61.20
31129;DHT22;17777;48.770;8.944;2023-07-29T06:11:59;23.60;61.20
31129;DHT22;17777;48.770;8.944;2023-07-29T06:14:26;23.60;61.20
31129;DHT22;17777;48.770;8.944;2023-07-29T06:16:52;23.70;61.30
31129;DHT22;17777;48.770;8.944;2023-07-29T06:19:19;23.70;61.40
31129;DHT22;17777;48.770;8.944;2023-07-29T06:21:45;23.80;61.40
31129;DHT22;17777;48.770;8.944;2023-07-29T06:24:11;23.80;61.40
31129;DHT22;17777;48.770;8.944;2023-07-29T06:26:37;23.80;61.30
31129;DHT22;17777;48.770;8.944;2023-07-29T06:29:02;23.90;61.40
31129;DHT22;17777;48.770;8.944;2023-07-29T06:31:28;23.90;61.30
31129;DHT22;17777;48.770;8.944;2023-07-29T06:33:55;23.90;61.30
31129;DHT22;17777;48.770;8.944;2023-07-29T06:36:20;23.90;61.20
31129;DHT22;17777;48.770;8.944;2023-07-29T06:38:46;24.00;61.30
31129;DHT22;17777;48.770;8.944;2023-07-29T06:41:12;24.00;61.40
31129;DHT22;17777;48.770;8.944;2023-07-29T06:43:38;24.00;61.40
31129;DHT22;17777;48.770;8.944;2023-07-29T06:46:04;24.00;62.20
31129;DHT22;17777;48.770;8.944;2023-07-29T06:48:30;24.00;61.40
31129;DHT22;17777;48.770;8.944;2023-07-29T06:50:56;24.10;61.30
31129;DHT22;17777;48.770;8.944;2023-07-29T06:53:29;24.10;61.30
31129;DHT22;17777;48.770;8.944;2023-07-29T06:55:55;24.10;61.30
31129;DHT22;17777;48.770;8.944;2023-07-29T06:58:21;24.10;61.30
31129;DHT22;17777;48.770;8.944;2023-07-29T07:00:47;24.10;61.30
31129;DHT22;17777;48.770;8.944;2023-07-29T07:03:13;24.10;61.20
31129;DHT22;17777;48.770;8.944;2023-07-29T07:05:39;24.10;61.30
31129;DHT22;17777;48.770;8.944;2023-07-29T07:08:04;24.10;61.30
31129;DHT22;17777;48.770;8.944;2023-07-29T07:10:30;24.10;61.40
31129;DHT22;17777;48.770;8.944;2023-07-29T07:12:57;24.10;61.30
31129;DHT22;17777;48.770;8.944;2023-07-29T07:15:22;24.20;61.40
31129;DHT22;17777;48.770;8.944;2023-07-29T07:17:48;24.20;61.40
31129;DHT22;17777;48.770;8.944;2023-07-29T07:20:14;24.20;61.30
31129;DHT22;17777;48.770;8.944;2023-07-29T07:22:40;24.20;61.40
31129;DHT22;17777;48.770;8.944;2023-07-29T07:25:06;24.20;61.30
31129;DHT22;17777;48.770;8.944;2023-07-29T07:27:32;24.20;61.30
31129;DHT22;17777;48.770;8.944;2023-07-29T07:29:58;24.20;61.30
31129;DHT22;17777;48.770;8.944;2023-07-29T07:32:24;24.20;61.30
31129;DHT22;17777;48.770;8.944;2023-07-29T07:34:50;24.20;61.30
31129;DHT22;17777;48.770;8.944;2023-07-29T07:37:15;24.20;61.40
31129;DHT22;17777;48.770;8.944;2023-07-29T07:39:41;24.20;61.50
31129;DHT22;17777;48.770;8.944;2023-07-29T07:42:07;24.30;61.70
31129;DHT22;17777;48.770;8.944;2023-07-29T07:44:33;24.30;61.70
31129;DHT22;17777;48.770;8.944;2023-07-29T07:46:59;24.30;61.70
31129;DHT22;17777;48.770;8.944;2023-07-29T07:49:24;24.30;61.70
31129;DHT22;17777;48.770;8.944;2023-07-29T07:51:50;24.40;61.80
31129;DHT22;17777;48.770;8.944;2023-07-29T07:54:16;24.40;61.90
31129;DHT22;17777;48.770;8.944;2023-07-29T07:56:43;24.50;62.10
31129;DHT22;17777;48.770;8.944;2023-07-29T07:59:09;24.50;62.10
31129;DHT22;17777;48.770;8.944;2023-07-29T08:01:38;24.60;62.20
31129;DHT22;17777;48.770;8.944;2023-07-29T08:04:05;24.60;62.00
31129;DHT22;17777;48.770;8.944;2023-07-29T08:06:32;24.70;62.00
31129;DHT22;17777;48.770;8.944;2023-07-29T08:08:58;24.80;62.10
31129;DHT22;17777;48.770;8.944;2023-07-29T08:11:24;24.80;62.00
31129;DHT22;17777;48.770;8.944;2023-07-29T08:13:51;24.90;61.90
31129;DHT22;17777;48.770;8.944;2023-07-29T08:16:17;25.00;61.70
31129;DHT22;17777;48.770;8.944;2023-07-29T08:18:43;25.00;61.50
31129;DHT22;17777;48.770;8.944;2023-07-29T08:21:09;25.10;61.40
31129;DHT22;17777;48.770;8.944;2023-07-29T08:23:35;25.20;61.20
31129;DHT22;17777;48.770;8.944;2023-07-29T08:26:03;25.20;61.00
31129;DHT22;17777;48.770;8.944;2023-07-29T08:28:33;25.20;60.90
31129;DHT22;17777;48.770;8.944;2023-07-29T08:31:00;25.30;60.90
31129;DHT22;17777;48.770;8.944;2023-07-29T08:33:26;25.30;60.90
31129;DHT22;17777;48.770;8.944;2023-07-29T08:35:52;25.30;60.90
31129;DHT22;17777;48.770;8.944;2023-07-29T08:38:19;25.40;61.10
31129;DHT22;17777;48.770;8.944;2023-07-29T08:40:50;25.40;61.10
31129;DHT22;17777;48.770;8.944;2023-07-29T08:43:20;25.50;61.40
31129;DHT22;17777;48.770;8.944;2023-07-29T08:45:51;25.50;61.40
31129;DHT22;17777;48.770;8.944;2023-07-29T08:48:21;25.60;61.30
31129;DHT22;17777;48.770;8.944;2023-07-29T08:50:51;25.70;61.30
31129;DHT22;17777;48.770;8.944;2023-07-29T08:53:18;25.80;61.20
31129;DHT22;17777;48.770;8.944;2023-07-29T08:55:44;25.90;61.00
31129;DHT22;17777;48.770;8.944;2023-07-29T08:58:10;26.00;61.00
31129;DHT22;17777;48.770;8.944;2023-07-29T09:00:36;26.00;60.80
31129;DHT22;17777;48.770;8.944;2023-07-29T09:03:02;26.10;60.80
31129;DHT22;17777;48.770;8.944;2023-07-29T09:05:33;26.20;60.70
31129;DHT22;17777;48.770;8.944;2023-07-29T09:08:02;26.30;60.70
31129;DHT22;17777;48.770;8.944;2023-07-29T09:10:28;26.30;60.50
31129;DHT22;17777;48.770;8.944;2023-07-29T09:12:54;26.50;60.50
31129;DHT22;17777;48.770;8.944;2023-07-29T09:15:27;26.50;60.30
31129;DHT22;17777;48.770;8.944;2023-07-29T09:17:57;26.60;59.90
31129;DHT22;17777;48.770;8.944;2023-07-29T09:20:27;26.70;59.80
31129;DHT22;17777;48.770;8.944;2023-07-29T09:22:55;26.70;59.20
31129;DHT22;17777;48.770;8.944;2023-07-29T09:25:25;26.80;59.40
31129;DHT22;17777;48.770;8.944;2023-07-29T09:27:52;26.90;59.00
31129;DHT22;17777;48.770;8.944;2023-07-29T09:30:18;26.90;59.10
31129;DHT22;17777;48.770;8.944;2023-07-29T09:32:43;27.00;59.00
31129;DHT22;17777;48.770;8.944;2023-07-29T09:35:11;27.00;58.80
31129;DHT22;17777;48.770;8.944;2023-07-29T09:37:38;27.10;58.60
31129;DHT22;17777;48.770;8.944;2023-07-29T09:40:06;27.10;58.30
31129;DHT22;17777;48.770;8.944;2023-07-29T09:42:33;27.20;58.20
31129;DHT22;17777;48.770;8.944;2023-07-29T09:44:58;27.20;58.00
31129;DHT22;17777;48.770;8.944;2023-07-29T09:47:25;27.20;57.70
31129;DHT22;17777;48.770;8.944;2023-07-29T09:49:52;27.20;57.60
31129;DHT22;17777;48.770;8.944;2023-07-29T09:52:21;27.20;57.40
31129;DHT22;17777;48.770;8.944;2023-07-29T09:54:48;27.30;57.40
31129;DHT22;17777;48.770;8.944;2023-07-29T09:57:15;27.30;57.60
31129;DHT22;17777;48.770;8.944;2023-07-29T09:59:42;27.40;57.40
31129;DHT22;17777;48.770;8.944;2023-07-29T10:02:16;27.50;57.60
31129;DHT22;17777;48.770;8.944;2023-07-29T10:04:42;27.50;57.10
31129;DHT22;17777;48.770;8.944;2023-07-29T10:07:11;27.60;57.20
31129;DHT22;17777;48.770;8.944;2023-07-29T10:09:40;27.70;56.70
31129;DHT22;17777;48.770;8.944;2023-07-29T10:12:07;27.70;56.30
31129;DHT22;17777;48.770;8.944;2023-07-29T10:14:38;27.80;56.50
31129;DHT22;17777;48.770;8.944;2023-07-29T10:17:05;27.80;56.10
31129;DHT22;17777;48.770;8.944;2023-07-29T10:19:31;27.80;55.90
31129;DHT22;17777;48.770;8.944;2023-07-29T10:21:59;27.80;55.90
31129;DHT22;17777;48.770;8.944;2023-07-29T10:24:32;27.80;56.00
31129;DHT22;17777;48.770;8.944;2023-07-29T10:27:00;27.90;55.50
31129;DHT22;17777;48.770;8.944;2023-07-29T10:29:38;27.80;55.90
31129;DHT22;17777;48.770;8.944;2023-07-29T10:32:05;27.90;55.70
31129;DHT22;17777;48.770;8.944;2023-07-29T10:34:32;27.80;56.00
31129;DHT22;17777;48.770;8.944;2023-07-29T10:36:59;27.90;56.00
31129;DHT22;17777;48.770;8.944;2023-07-29T10:39:25;27.80;56.10
31129;DHT22;17777;48.770;8.944;2023-07-29T10:41:55;27.80;56.00
31129;DHT22;17777;48.770;8.944;2023-07-29T10:47:19;27.80;55.50
31129;DHT22;17777;48.770;8.944;2023-07-29T10:49:59;27.80;55.40
31129;DHT22;17777;48.770;8.944;2023-07-29T10:52:39;27.70;55.40
31129;DHT22;17777;48.770;8.944;2023-07-29T10:55:24;27.70;55.50
31129;DHT22;17777;48.770;8.944;2023-07-29T10:57:54;27.70;55.20
31129;DHT22;17777;48.770;8.944;2023-07-29T11:00:42;27.80;55.80
31129;DHT22;17777;48.770;8.944;2023-07-29T11:03:12;27.80;55.50
31129;DHT22;17777;48.770;8.944;2023-07-29T11:05:47;27.80;55.50
31129;DHT22;17777;48.770;8.944;2023-07-29T11:08:30;27.80;55.00
31129;DHT22;17777;48.770;8.944;2023-07-29T11:11:09;27.80;54.70
31129;DHT22;17777;48.770;8.944;2023-07-29T11:13:38;27.80;54.50
31129;DHT22;17777;48.770;8.944;2023-07-29T11:16:05;27.90;55.00
31129;DHT22;17777;48.770;8.944;2023-07-29T11:18:33;27.90;54.90
31129;DHT22;17777;48.770;8.944;2023-07-29T11:21:01;27.90;54.80
31129;DHT22;17777;48.770;8.944;2023-07-29T11:23:36;27.90;54.60
31129;DHT22;17777;48.770;8.944;2023-07-29T11:26:03;27.90;53.90
31129;DHT22;17777;48.770;8.944;2023-07-29T11:28:30;27.90;54.40
31129;DHT22;17777;48.770;8.944;2023-07-29T11:30:57;28.00;54.40
31129;DHT22;17777;48.770;8.944;2023-07-29T11:33:27;28.00;54.40
31129;DHT22;17777;48.770;8.944;2023-07-29T11:35:54;28.00;54.00
31129;DHT22;17777;48.770;8.944;2023-07-29T11:38:21;28.00;54.40
31129;DHT22;17777;48.770;8.944;2023-07-29T11:40:59;28.00;54.40
31129;DHT22;17777;48.770;8.944;2023-07-29T11:43:28;28.00;53.70
31129;DHT22;17777;48.770;8.944;2023-07-29T11:45:54;28.10;54.40
31129;DHT22;17777;48.770;8.944;2023-07-29T11:48:27;28.10;54.30
31129;DHT22;17777;48.770;8.944;2023-07-29T11:50:54;28.10;53.60
31129;DHT22;17777;48.770;8.944;2023-07-29T11:53:20;28.20;54.20
31129;DHT22;17777;48.770;8.944;2023-07-29T11:55:53;28.20;54.00
31129;DHT22;17777;48.770;8.944;2023-07-29T11:58:20;28.20;53.70
31129;DHT22;17777;48.770;8.944;2023-07-29T12:00:47;28.30;53.90
31129;DHT22;17777;48.770;8.944;2023-07-29T12:03:13;28.30;53.90
31129;DHT22;17777;48.770;8.944;2023-07-29T12:05:40;28.40;53.70
31129;DHT22;17777;48.770;8.944;2023-07-29T12:08:07;28.50;53.50
31129;DHT22;17777;48.770;8.944;2023-07-29T12:10:34;28.50;53.20
31129;DHT22;17777;48.770;8.944;2023-07-29T12:13:02;28.60;53.10
31129;DHT22;17777;48.770;8.944;2023-07-29T12:15:29;28.70;52.50
31129;DHT22;17777;48.770;8.944;2023-07-29T12:17:56;28.70;52.40
31129;DHT22;17777;48.770;8.944;2023-07-29T12:20:23;28.80;52.30
31129;DHT22;17777;48.770;8.944;2023-07-29T12:22:57;28.80;52.20
31129;DHT22;17777;48.770;8.944;2023-07-29T12:25:27;28.90;51.40
31129;DHT22;17777;48.770;8.944;2023-07-29T12:27:53;29.00;51.50
31129;DHT22;17777;48.770;8.944;2023-07-29T12:30:23;29.00;51.30
31129;DHT22;17777;48.770;8.944;2023-07-29T12:32:50;29.10;50.50
31129;DHT22;17777;48.770;8.944;2023-07-29T12:35:16;29.20;51.10
31129;DHT22;17777;48.770;8.944;2023-07-29T12:37:42;29.20;50.70
31129;DHT22;17777;48.770;8.944;2023-07-29T12:40:28;29.30;50.60
31129;DHT22;17777;48.770;8.944;2023-07-29T12:42:55;29.30;49.40
31129;DHT22;17777;48.770;8.944;2023-07-29T12:45:21;29.40;50.30
31129;DHT22;17777;48.770;8.944;2023-07-29T12:47:51;29.50;50.30
31129;DHT22;17777;48.770;8.944;2023-07-29T12:50:17;29.50;50.20
31129;DHT22;17777;48.770;8.944;2023-07-29T12:52:43;29.60;50.20
31129;DHT22;17777;48.770;8.944;2023-07-29T12:55:09;29.60;49.90
31129;DHT22;17777;48.770;8.944;2023-07-29T12:57:39;29.70;49.70
31129;DHT22;17777;48.770;8.944;2023-07-29T13:00:07;29.80;49.50
31129;DHT22;17777;48.770;8.944;2023-07-29T13:02:34;29.80;49.40
31129;DHT22;17777;48.770;8.944;2023-07-29T13:05:00;29.90;49.10
31129;DHT22;17777;48.770;8.944;2023-07-29T13:07:25;29.90;48.90
31129;DHT22;17777;48.770;8.944;2023-07-29T13:09:51;29.90;48.80
31129;DHT22;17777;48.770;8.944;2023-07-29T13:12:17;30.00;48.60
31129;DHT22;17777;48.770;8.944;2023-07-29T13:14:43;30.10;48.50
31129;DHT22;17777;48.770;8.944;2023-07-29T13:17:09;30.10;48.30
31129;DHT22;17777;48.770;8.944;2023-07-29T13:19:34;30.10;48.10
31129;DHT22;17777;48.770;8.944;2023-07-29T13:22:00;30.20;48.00
31129;DHT22;17777;48.770;8.944;2023-07-29T13:24:27;30.20;47.80
31129;DHT22;17777;48.770;8.944;2023-07-29T13:26:53;30.20;47.40
31129;DHT22;17777;48.770;8.944;2023-07-29T13:29:19;30.20;47.20
31129;DHT22;17777;48.770;8.944;2023-07-29T13:31:45;30.20;47.20
31129;DHT22;17777;48.770;8.944;2023-07-29T13:34:11;30.20;47.50
31129;DHT22;17777;48.770;8.944;2023-07-29T13:36:36;30.10;47.20
31129;DHT22;17777;48.770;8.944;2023-07-29T13:39:02;30.10;47.00
31129;DHT22;17777;48.770;8.944;2023-07-29T13:41:28;30.00;46.80
31129;DHT22;17777;48.770;8.944;2023-07-29T13:43:54;29.90;47.00
31129;DHT22;17777;48.770;8.944;2023-07-29T13:46:20;29.90;46.90
31129;DHT22;17777;48.770;8.944;2023-07-29T13:48:46;29.90;46.70
31129;DHT22;17777;48.770;8.944;2023-07-29T13:51:12;29.80;46.80
31129;DHT22;17777;48.770;8.944;2023-07-29T13:53:38;29.80;47.00
31129;DHT22;17777;48.770;8.944;2023-07-29T13:56:04;29.70;47.00
31129;DHT22;17777;48.770;8.944;2023-07-29T13:58:30;29.70;47.20
31129;DHT22;17777;48.770;8.944;2023-07-29T14:00:56;29.60;47.30
31129;DHT22;17777;48.770;8.944;2023-07-29T14:03:22;29.60;47.40
31129;DHT22;17777;48.770;8.944;2023-07-29T14:05:47;29.60;47.60
31129;DHT22;17777;48.770;8.944;2023-07-29T14:08:13;29.60;47.30
31129;DHT22;17777;48.770;8.944;2023-07-29T14:10:39;29.60;47.50
31129;DHT22;17777;48.770;8.944;2023-07-29T14:13:05;29.60;47.50
31129;DHT22;17777;48.770;8.944;2023-07-29T14:15:30;29.60;47.40
31129;DHT22;17777;48.770;8.944;2023-07-29T14:17:58;29.60;47.30
31129;DHT22;17777;48.770;8.944;2023-07-29T14:20:24;29.60;47.30
31129;DHT22;17777;48.770;8.944;2023-07-29T14:22:50;29.60;47.40
31129;DHT22;17777;48.770;8.944;2023-07-29T14:25:15;29.60;47.10
31129;DHT22;17777;48.770;8.944;2023-07-29T14:27:41;29.60;47.00
31129;DHT22;17777;48.770;8.944;2023-07-29T14:30:07;29.60;47.10
31129;DHT22;17777;48.770;8.944;2023-07-29T14:32:33;29.60;46.90
31129;DHT22;17777;48.770;8.944;2023-07-29T14:34:59;29.50;47.00
31129;DHT22;17777;48.770;8.944;2023-07-29T14:37:30;29.50;46.80
31129;DHT22;17777;48.770;8.944;2023-07-29T14:39:57;29.50;46.90
31129;DHT22;17777;48.770;8.944;2023-07-29T14:42:23;29.50;47.00
31129;DHT22;17777;48.770;8.944;2023-07-29T14:44:49;29.40;46.90
31129;DHT22;17777;48.770;8.944;2023-07-29T14:47:15;29.40;47.00
31129;DHT22;17777;48.770;8.944;2023-07-29T14:49:40;29.40;47.00
31129;DHT22;17777;48.770;8.944;2023-07-29T14:52:07;29.40;46.90
31129;DHT22;17777;48.770;8.944;2023-07-29T14:54:33;29.30;47.00
31129;DHT22;17777;48.770;8.944;2023-07-29T14:56:58;29.30;46.90
31129;DHT22;17777;48.770;8.944;2023-07-29T14:59:24;29.20;46.90
31129;DHT22;17777;48.770;8.944;2023-07-29T15:01:50;29.20;46.90
31129;DHT22;17777;48.770;8.944;2023-07-29T15:04:16;29.20;47.00
31129;DHT22;17777;48.770;8.944;2023-07-29T15:06:42;29.20;47.20
31129;DHT22;17777;48.770;8.944;2023-07-29T15:09:07;29.10;47.00
31129;DHT22;17777;48.770;8.944;2023-07-29T15:11:33;29.10;47.00
31129;DHT22;17777;48.770;8.944;2023-07-29T15:14:00;29.10;47.20
31129;DHT22;17777;48.770;8.944;2023-07-29T15:16:26;29.10;47.30
31129;DHT22;17777;48.770;8.944;2023-07-29T15:18:52;29.10;47.40
31129;DHT22;17777;48.770;8.944;2023-07-29T15:21:18;29.10;47.50
31129;DHT22;17777;48.770;8.944;2023-07-29T15:23:43;29.10;47.60
31129;DHT22;17777;48.770;8.944;2023-07-29T15:26:09;29.10;47.70
31129;DHT22;17777;48.770;8.944;2023-07-29T15:28:35;29.10;47.70
31129;DHT22;17777;48.770;8.944;2023-07-29T15:31:01;29.10;47.70
31129;DHT22;17777;48.770;8.944;2023-07-29T15:33:27;29.20;47.50
31129;DHT22;17777;48.770;8.944;2023-07-29T15:35:52;29.20;47.70
31129;DHT22;17777;48.770;8.944;2023-07-29T15:38:18;29.20;47.70